createdAt,value
2023-04-18T00:01:10.752Z,6.47
2023-04-18T00:03:38.940Z,6.32
2023-04-18T00:06:05.841Z,6.55
2023-04-18T00:08:33.477Z,6.55
2023-04-18T00:10:59.899Z,6.95
2023-04-18T00:13:28.305Z,6.82
2023-04-18T00:15:55.098Z,7.22
2023-04-18T00:18:21.933Z,6.55
2023-04-18T00:20:48.354Z,6.50
2023-04-18T00:23:14.736Z,7.32
2023-04-18T00:25:41.106Z,6.75
2023-04-18T00:28:07.500Z,6.18
2023-04-18T00:30:33.919Z,6.55
2023-04-18T00:33:00.490Z,6.38
2023-04-18T00:35:26.920Z,6.78
2023-04-18T00:37:53.337Z,6.72
2023-04-18T00:40:19.905Z,6.65
2023-04-18T00:42:46.341Z,6.20
2023-04-18T00:45:12.727Z,6.88
2023-04-18T00:47:39.138Z,6.63
2023-04-18T00:50:06.169Z,7.18
2023-04-18T00:52:35.730Z,7.00
2023-04-18T00:55:07.178Z,6.72
2023-04-18T00:57:34.479Z,7.15
2023-04-18T01:00:01.869Z,6.80
2023-04-18T01:02:30.496Z,7.20
2023-04-18T01:04:58.603Z,7.85
2023-04-18T01:07:26.527Z,8.10
2023-04-18T01:09:53.889Z,7.72
2023-04-18T01:12:20.464Z,7.88
2023-04-18T01:14:46.880Z,8.65
2023-04-18T01:17:13.476Z,8.52
2023-04-18T01:19:40.522Z,8.23
2023-04-18T01:22:07.179Z,7.75
2023-04-18T01:24:33.714Z,8.10
2023-04-18T01:27:01.709Z,7.75
2023-04-18T01:29:28.110Z,8.07
2023-04-18T01:31:54.658Z,7.72
2023-04-18T01:34:21.153Z,8.20
2023-04-18T01:36:47.550Z,8.38
2023-04-18T01:39:14.579Z,8.75
2023-04-18T01:41:44.261Z,8.73
2023-04-18T01:44:10.688Z,9.00
2023-04-18T01:46:37.159Z,8.25
2023-04-18T01:49:03.634Z,8.05
2023-04-18T01:51:30.046Z,9.52
2023-04-18T01:53:56.581Z,8.20
2023-04-18T01:56:23.072Z,8.07
2023-04-18T01:58:49.477Z,8.05
2023-04-18T02:01:15.873Z,8.07
2023-04-18T02:03:42.478Z,8.63
2023-04-18T02:06:09.983Z,8.57
2023-04-18T02:08:36.377Z,8.45
2023-04-18T02:11:02.866Z,7.95
2023-04-18T02:13:29.267Z,8.65
2023-04-18T02:15:55.602Z,8.70
2023-04-18T02:18:24.857Z,9.35
2023-04-18T02:20:52.079Z,8.05
2023-04-18T02:23:18.803Z,8.60
2023-04-18T02:25:45.225Z,7.80
2023-04-18T02:28:11.736Z,9.07
2023-04-18T02:30:38.149Z,8.15
2023-04-18T02:33:04.538Z,8.05
2023-04-18T02:35:31.686Z,8.13
2023-04-18T02:37:58.051Z,8.05
2023-04-18T02:40:24.462Z,8.55
2023-04-18T02:42:50.901Z,7.70
2023-04-18T02:45:17.412Z,8.20
2023-04-18T02:47:54.554Z,7.68
2023-04-18T02:50:22.911Z,7.82
2023-04-18T02:52:49.300Z,7.25
2023-04-18T02:55:15.775Z,7.32
2023-04-18T02:57:42.187Z,8.00
2023-04-18T03:00:09.244Z,7.32
2023-04-18T03:02:35.754Z,7.18
2023-04-18T03:05:02.269Z,7.65
2023-04-18T03:07:28.690Z,7.15
2023-04-18T03:09:55.233Z,7.88
2023-04-18T03:12:21.728Z,8.07
2023-04-18T03:14:48.147Z,8.32
2023-04-18T03:17:14.639Z,8.63
2023-04-18T03:19:41.027Z,8.57
2023-04-18T03:22:07.448Z,7.72
2023-04-18T03:24:33.831Z,8.75
2023-04-18T03:27:00.637Z,8.25
2023-04-18T03:29:27.078Z,8.00
2023-04-18T03:31:53.437Z,8.75
2023-04-18T03:34:19.855Z,8.48
2023-04-18T03:36:47.945Z,8.80
2023-04-18T03:39:14.898Z,9.20
2023-04-18T03:41:41.296Z,9.20
2023-04-18T03:44:07.696Z,8.68
2023-04-18T03:46:34.436Z,8.98
2023-04-18T03:49:00.935Z,9.18
2023-04-18T03:51:27.591Z,8.77
2023-04-18T03:53:53.982Z,8.50
2023-04-18T03:56:20.378Z,7.95
2023-04-18T03:58:46.743Z,8.30
2023-04-18T04:01:13.076Z,8.52
2023-04-18T04:03:39.729Z,8.30
2023-04-18T04:06:06.824Z,8.30
2023-04-18T04:08:33.855Z,8.45
2023-04-18T04:11:00.306Z,8.73
2023-04-18T04:13:26.674Z,8.35
2023-04-18T04:15:53.220Z,7.70
2023-04-18T04:18:20.132Z,7.97
2023-04-18T04:20:46.570Z,8.30
2023-04-18T04:23:12.946Z,7.38
2023-04-18T04:25:39.416Z,7.60
2023-04-18T04:28:06.689Z,7.63
2023-04-18T04:30:33.612Z,7.25
2023-04-18T04:33:01.640Z,8.35
2023-04-18T04:35:28.311Z,8.57
2023-04-18T04:37:54.698Z,8.50
2023-04-18T04:40:22.905Z,7.53
2023-04-18T04:42:53.962Z,8.05
2023-04-18T04:45:20.606Z,7.80
2023-04-18T04:47:47.493Z,7.32
2023-04-18T04:50:15.546Z,7.65
2023-04-18T04:52:42.714Z,8.30
2023-04-18T04:55:09.634Z,7.75
2023-04-18T04:57:36.176Z,7.95
2023-04-18T05:00:03.554Z,7.88
2023-04-18T05:02:30.058Z,7.75
2023-04-18T05:04:56.561Z,8.55
2023-04-18T05:07:22.993Z,8.45
2023-04-18T05:09:49.571Z,7.72
2023-04-18T05:12:16.008Z,7.82
2023-04-18T05:14:42.400Z,8.38
2023-04-18T05:17:08.815Z,7.78
2023-04-18T05:19:35.599Z,8.27
2023-04-18T05:22:01.957Z,8.35
2023-04-18T05:24:28.516Z,8.15
2023-04-18T05:26:54.917Z,9.35
2023-04-18T05:29:21.286Z,9.15
2023-04-18T05:31:47.664Z,8.57
2023-04-18T05:34:14.332Z,9.35
2023-04-18T05:36:41.048Z,8.40
2023-04-18T05:39:08.094Z,8.85
2023-04-18T05:41:34.481Z,8.70
2023-04-18T05:44:05.242Z,9.25
2023-04-18T05:46:43.420Z,9.30
2023-04-18T05:49:09.869Z,9.48
2023-04-18T05:51:36.347Z,9.02
2023-04-18T05:54:02.777Z,9.10
2023-04-18T05:56:29.947Z,9.60
2023-04-18T05:58:56.462Z,9.63
2023-04-18T06:01:22.895Z,9.55
2023-04-18T06:03:49.543Z,9.23
2023-04-18T06:06:16.185Z,9.88
2023-04-18T06:08:42.729Z,9.32
2023-04-18T06:11:09.098Z,9.90
2023-04-18T06:13:36.662Z,8.90
2023-04-18T06:16:03.940Z,9.38
2023-04-18T06:18:30.365Z,9.43
2023-04-18T06:20:56.782Z,9.05
2023-04-18T06:23:23.108Z,9.80
2023-04-18T06:25:49.629Z,8.98
2023-04-18T06:28:16.101Z,8.82
2023-04-18T06:30:42.515Z,8.70
2023-04-18T06:33:11.521Z,8.98
2023-04-18T06:35:38.368Z,8.68
2023-04-18T06:38:04.785Z,8.60
2023-04-18T06:40:31.461Z,8.10
2023-04-18T06:42:57.806Z,8.02
2023-04-18T06:45:24.204Z,8.23
2023-04-18T06:47:51.478Z,8.57
2023-04-18T06:50:17.951Z,8.90
2023-04-18T06:52:45.477Z,8.48
2023-04-18T06:55:13.081Z,7.95
2023-04-18T06:57:43.234Z,8.13
2023-04-18T07:00:10.640Z,7.18
2023-04-18T07:02:38.532Z,7.97
2023-04-18T07:05:05.953Z,7.25
2023-04-18T07:07:33.277Z,8.10
2023-04-18T07:09:59.691Z,7.15
2023-04-18T07:12:26.086Z,7.05
2023-04-18T07:14:54.289Z,8.32
2023-04-18T07:17:20.796Z,7.07
2023-04-18T07:19:47.250Z,6.88
2023-04-18T07:22:13.624Z,7.45
2023-04-18T07:24:40.129Z,7.07
2023-04-18T07:27:07.121Z,6.95
2023-04-18T07:29:33.573Z,7.40
2023-04-18T07:32:00.062Z,7.47
2023-04-18T07:34:29.583Z,7.78
2023-04-18T07:36:57.455Z,7.55
2023-04-18T07:39:23.923Z,7.47
2023-04-18T07:41:50.339Z,8.27
2023-04-18T07:44:16.908Z,8.15
2023-04-18T07:46:43.319Z,8.18
2023-04-18T07:49:09.815Z,7.28
2023-04-18T07:51:36.185Z,7.57
2023-04-18T07:54:02.921Z,8.13
2023-04-18T07:56:29.452Z,7.78
2023-04-18T07:58:55.901Z,7.75
2023-04-18T08:01:24.606Z,8.23
2023-04-18T08:03:52.459Z,8.60
2023-04-18T08:06:19.038Z,8.35
2023-04-18T08:08:45.419Z,8.35
2023-04-18T08:11:11.969Z,7.97
2023-04-18T08:13:38.507Z,8.32
2023-04-18T08:16:05.064Z,9.10
2023-04-18T08:18:31.502Z,8.40
2023-04-18T08:20:57.942Z,8.45
2023-04-18T08:23:24.468Z,8.70
2023-04-18T08:25:50.927Z,8.13
2023-04-18T08:28:17.549Z,8.55
2023-04-18T08:30:48.573Z,8.52
2023-04-18T08:33:15.953Z,7.80
2023-04-18T08:35:42.946Z,8.27
2023-04-18T08:38:09.526Z,8.43
2023-04-18T08:40:37.471Z,7.60
2023-04-18T08:43:09.251Z,7.57
2023-04-18T08:45:36.736Z,8.05
2023-04-18T08:48:03.768Z,7.75
2023-04-18T08:50:31.869Z,7.93
2023-04-18T08:53:00.710Z,7.88
2023-04-18T08:55:27.292Z,7.53
2023-04-18T08:57:57.643Z,8.02
2023-04-18T09:00:24.069Z,7.90
2023-04-18T09:02:56.621Z,7.20
2023-04-18T09:05:25.390Z,7.82
2023-04-18T09:07:54.166Z,8.02
2023-04-18T09:10:28.637Z,8.30
2023-04-18T09:12:56.862Z,8.38
2023-04-18T09:15:26.937Z,7.82
2023-04-18T09:17:56.068Z,8.43
2023-04-18T09:20:44.545Z,7.82
2023-04-18T09:23:16.140Z,8.90
2023-04-18T09:25:48.012Z,8.15
2023-04-18T09:28:24.964Z,8.60
2023-04-18T09:30:52.459Z,8.82
2023-04-18T09:33:28.872Z,9.00
2023-04-18T09:35:57.019Z,9.02
2023-04-18T09:38:41.768Z,10.02
2023-04-18T09:41:09.615Z,9.30
2023-04-18T09:43:36.041Z,9.68
2023-04-18T09:46:04.237Z,8.68
2023-04-18T09:48:31.032Z,9.50
2023-04-18T09:51:01.205Z,9.20
2023-04-18T09:53:28.644Z,9.45
2023-04-18T09:55:57.727Z,8.73
2023-04-18T09:58:25.881Z,9.20
2023-04-18T10:00:54.699Z,8.40
2023-04-18T10:03:25.002Z,8.70
2023-04-18T10:05:52.071Z,8.48
2023-04-18T10:08:18.579Z,8.88
2023-04-18T10:10:44.938Z,8.90
2023-04-18T10:13:13.808Z,8.80
2023-04-18T10:15:41.752Z,9.32
2023-04-18T10:18:13.998Z,9.13
2023-04-18T10:20:41.625Z,7.78
2023-04-18T10:23:34.691Z,9.38
2023-04-18T10:26:02.243Z,8.85
2023-04-18T10:28:49.535Z,8.57
2023-04-18T10:31:16.713Z,7.28
2023-04-18T10:34:00.682Z,7.97
2023-04-18T10:36:30.844Z,8.77
2023-04-18T10:39:19.236Z,8.02
2023-04-18T10:41:51.112Z,7.20
2023-04-18T10:44:23.016Z,7.38
2023-04-18T10:46:52.878Z,8.73
2023-04-18T10:49:20.300Z,9.40
2023-04-18T10:51:51.130Z,9.27
2023-04-18T10:54:22.162Z,7.97
2023-04-18T10:56:53.729Z,8.45
2023-04-18T10:59:22.685Z,8.45
2023-04-18T11:01:54.558Z,8.45
2023-04-18T11:04:21.091Z,8.68
2023-04-18T11:06:54.841Z,8.93
2023-04-18T11:09:22.376Z,8.60
2023-04-18T11:12:04.441Z,8.75
2023-04-18T11:14:43.985Z,8.93
2023-04-18T11:17:21.826Z,8.57
2023-04-18T11:19:48.486Z,8.93
2023-04-18T11:22:15.965Z,8.32
2023-04-18T11:24:42.868Z,9.00
2023-04-18T11:27:10.592Z,8.52
2023-04-18T11:29:37.568Z,8.93
2023-04-18T11:32:08.125Z,9.73
2023-04-18T11:34:35.629Z,8.82
2023-04-18T11:37:05.618Z,8.43
2023-04-18T11:39:36.058Z,9.55
2023-04-18T11:42:02.466Z,9.20
2023-04-18T11:44:28.818Z,8.77
2023-04-18T11:46:55.329Z,8.63
2023-04-18T11:49:29.620Z,9.00
2023-04-18T11:51:56.201Z,8.30
2023-04-18T11:55:09.734Z,8.18
2023-04-18T11:57:36.272Z,8.68
2023-04-18T12:00:03.413Z,8.95
2023-04-18T12:02:42.661Z,8.40
2023-04-18T12:05:10.513Z,8.15
2023-04-18T12:07:38.932Z,9.15
2023-04-18T12:10:25.413Z,8.27
2023-04-18T12:12:55.903Z,8.57
2023-04-18T12:15:25.161Z,8.30
2023-04-18T12:17:54.449Z,7.85
2023-04-18T12:20:24.727Z,8.45
2023-04-18T12:22:51.852Z,8.15
2023-04-18T12:25:28.152Z,7.78
2023-04-18T12:28:14.942Z,7.63
2023-04-18T12:30:42.190Z,8.23
2023-04-18T12:33:11.483Z,8.55
2023-04-18T12:35:38.004Z,8.38
2023-04-18T12:38:05.747Z,9.02
2023-04-18T12:40:32.135Z,8.82
2023-04-18T12:42:58.560Z,9.18
2023-04-18T12:45:25.314Z,9.30
2023-04-18T12:47:52.813Z,9.10
2023-04-18T12:50:24.963Z,8.60
2023-04-18T12:52:53.084Z,9.40
2023-04-18T12:55:20.163Z,9.70
2023-04-18T12:57:46.964Z,9.75
2023-04-18T13:00:13.941Z,8.65
2023-04-18T13:02:42.961Z,9.50
2023-04-18T13:05:11.899Z,9.75
2023-04-18T13:07:40.478Z,10.27
2023-04-18T13:10:09.238Z,9.95
2023-04-18T13:12:36.037Z,9.68
2023-04-18T13:15:03.310Z,9.52
2023-04-18T13:17:29.780Z,9.60
2023-04-18T13:19:56.479Z,9.65
2023-04-18T13:22:22.984Z,9.80
2023-04-18T13:24:49.334Z,9.38
2023-04-18T13:27:15.806Z,8.85
2023-04-18T13:29:43.359Z,8.73
2023-04-18T13:32:10.088Z,8.68
2023-04-18T13:34:39.533Z,9.43
2023-04-18T13:37:06.433Z,9.70
2023-04-18T13:39:33.771Z,9.57
2023-04-18T13:42:02.916Z,9.93
2023-04-18T13:44:30.487Z,9.57
2023-04-18T13:46:57.518Z,9.20
2023-04-18T13:49:24.182Z,9.25
2023-04-18T13:51:53.436Z,10.48
2023-04-18T13:54:20.133Z,9.82
2023-04-18T13:56:46.557Z,10.60
2023-04-18T13:59:13.155Z,10.15
2023-04-18T14:01:39.791Z,9.88
2023-04-18T14:04:06.454Z,9.43
2023-04-18T14:06:33.139Z,9.75
2023-04-18T14:08:59.613Z,9.05
2023-04-18T14:11:26.083Z,9.95
2023-04-18T14:13:52.570Z,9.82
2023-04-18T14:16:19.219Z,9.13
2023-04-18T14:18:46.105Z,9.75
2023-04-18T14:21:12.499Z,9.65
2023-04-18T14:23:38.859Z,10.10
2023-04-18T14:26:05.589Z,9.15
2023-04-18T14:28:32.031Z,9.00
2023-04-18T14:31:02.271Z,8.32
2023-04-18T14:33:29.165Z,8.93
2023-04-18T14:35:55.568Z,9.02
2023-04-18T14:38:21.961Z,9.07
2023-04-18T14:40:48.366Z,8.93
2023-04-18T14:43:14.708Z,8.50
2023-04-18T14:45:41.098Z,8.50
2023-04-18T14:48:08.849Z,8.75
2023-04-18T14:50:38.512Z,8.25
2023-04-18T14:53:06.072Z,8.23
2023-04-18T14:55:33.533Z,7.60
2023-04-18T14:58:00.535Z,8.45
2023-04-18T15:00:27.242Z,7.72
2023-04-18T15:02:54.316Z,7.80
2023-04-18T15:05:23.593Z,7.38
2023-04-18T15:07:52.903Z,7.60
2023-04-18T15:10:22.318Z,7.63
2023-04-18T15:12:48.965Z,8.02
2023-04-18T15:15:15.485Z,7.38
2023-04-18T15:17:41.866Z,7.43
2023-04-18T15:20:09.354Z,8.20
2023-04-18T15:22:37.059Z,7.38
2023-04-18T15:25:05.160Z,7.70
2023-04-18T15:27:31.566Z,7.18
2023-04-18T15:29:58.044Z,7.63
2023-04-18T15:32:24.624Z,7.60
2023-04-18T15:34:51.455Z,7.95
2023-04-18T15:37:17.850Z,8.02
2023-04-18T15:39:44.233Z,7.32
2023-04-18T15:42:10.606Z,7.22
2023-04-18T15:44:37.099Z,7.80
2023-04-18T15:47:03.464Z,7.30
2023-04-18T15:49:29.871Z,8.65
2023-04-18T15:51:56.855Z,8.85
2023-04-18T15:54:23.264Z,8.98
2023-04-18T15:56:49.743Z,9.63
2023-04-18T15:59:16.167Z,8.88
2023-04-18T16:01:46.032Z,8.95
2023-04-18T16:04:13.026Z,9.32
2023-04-18T16:06:40.376Z,9.80
2023-04-18T16:09:06.852Z,9.50
2023-04-18T16:11:33.201Z,9.43
2023-04-18T16:13:59.575Z,9.43
2023-04-18T16:16:26.509Z,9.30
2023-04-18T16:18:52.964Z,9.93
2023-04-18T16:21:19.416Z,10.00
2023-04-18T16:23:45.788Z,10.18
2023-04-18T16:26:12.165Z,9.98
2023-04-18T16:28:38.770Z,9.60
2023-04-18T16:31:05.894Z,9.35
2023-04-18T16:33:32.796Z,9.40
2023-04-18T16:36:04.507Z,10.82
2023-04-18T16:38:30.996Z,10.32
2023-04-18T16:40:58.613Z,10.15
2023-04-18T16:43:26.898Z,10.55
2023-04-18T16:45:56.545Z,10.57
2023-04-18T16:48:26.089Z,9.57
2023-04-18T16:50:52.873Z,10.20
2023-04-18T16:53:19.356Z,9.88
2023-04-18T16:55:46.025Z,10.18
2023-04-18T16:58:12.441Z,10.60
2023-04-18T17:00:39.105Z,11.15
2023-04-18T17:03:10.008Z,10.27
2023-04-18T17:05:37.589Z,10.38
2023-04-18T17:08:04.126Z,8.98
2023-04-18T17:10:31.120Z,10.65
2023-04-18T17:12:58.398Z,8.90
2023-04-18T17:15:26.178Z,10.18
2023-04-18T17:17:52.830Z,9.73
2023-04-18T17:20:19.443Z,10.77
2023-04-18T17:22:45.890Z,10.35
2023-04-18T17:25:15.388Z,10.65
2023-04-18T17:27:42.799Z,9.80
2023-04-18T17:30:09.802Z,10.30
2023-04-18T17:32:36.271Z,10.40
2023-04-18T17:35:05.916Z,10.80
2023-04-18T17:37:32.355Z,11.02
2023-04-18T17:40:00.247Z,10.27
2023-04-18T17:42:26.686Z,10.63
2023-04-18T17:44:53.038Z,10.60
2023-04-18T17:47:19.420Z,10.77
2023-04-18T17:49:45.982Z,10.48
2023-04-18T17:52:12.409Z,10.73
2023-04-18T17:54:38.831Z,11.70
2023-04-18T17:57:05.211Z,11.02
2023-04-18T17:59:37.429Z,10.93
2023-04-18T18:02:04.991Z,10.27
2023-04-18T18:04:31.849Z,11.02
2023-04-18T18:06:59.005Z,10.93
2023-04-18T18:09:25.461Z,11.05
2023-04-18T18:11:54.029Z,11.70
2023-04-18T18:14:21.789Z,11.50
2023-04-18T18:16:48.329Z,11.13
2023-04-18T18:19:15.227Z,10.93
2023-04-18T18:21:42.512Z,11.43
2023-04-18T18:24:09.477Z,11.23
2023-04-18T18:26:36.197Z,11.02
2023-04-18T18:29:09.269Z,11.77
2023-04-18T18:31:36.110Z,11.50
2023-04-18T18:34:02.822Z,12.07
2023-04-18T18:36:29.413Z,11.40
2023-04-18T18:38:55.935Z,12.35
2023-04-18T18:41:22.582Z,12.38
2023-04-18T18:43:50.111Z,11.30
2023-04-18T18:46:16.784Z,12.95
2023-04-18T18:48:43.636Z,12.07
2023-04-18T18:51:10.684Z,11.75
2023-04-18T18:53:39.605Z,12.25
2023-04-18T18:56:08.695Z,12.05
2023-04-18T18:58:35.599Z,12.43
2023-04-18T19:01:03.233Z,11.88
2023-04-18T19:03:29.933Z,11.98
2023-04-18T19:05:56.660Z,12.27
2023-04-18T19:08:23.194Z,12.10
2023-04-18T19:10:50.536Z,12.38
2023-04-18T19:13:18.926Z,12.25
2023-04-18T19:15:45.323Z,11.90
2023-04-18T19:18:12.371Z,11.82
2023-04-18T19:20:40.299Z,11.75
2023-04-18T19:23:06.799Z,10.95
2023-04-18T19:25:33.309Z,11.82
2023-04-18T19:27:59.701Z,11.23
2023-04-18T19:30:26.058Z,11.73
2023-04-18T19:32:52.497Z,11.50
2023-04-18T19:35:18.872Z,11.50
2023-04-18T19:37:45.352Z,11.90
2023-04-18T19:40:12.149Z,10.95
2023-04-18T19:42:38.520Z,12.05
2023-04-18T19:45:05.891Z,11.75
2023-04-18T19:47:33.870Z,11.77
2023-04-18T19:50:01.079Z,11.48
2023-04-18T19:52:27.512Z,11.70
2023-04-18T19:54:54.020Z,11.85
2023-04-18T19:57:20.402Z,11.98
2023-04-18T19:59:46.804Z,10.85
2023-04-18T20:02:13.265Z,11.10
2023-04-18T20:04:40.497Z,11.00
2023-04-18T20:07:07.476Z,11.27
2023-04-18T20:09:33.855Z,11.90
2023-04-18T20:12:01.980Z,11.48
2023-04-18T20:14:29.084Z,11.55
2023-04-18T20:16:56.214Z,11.23
2023-04-18T20:19:25.689Z,11.18
2023-04-18T20:21:52.586Z,11.25
2023-04-18T20:24:20.965Z,10.90
2023-04-18T20:26:47.771Z,11.43
2023-04-18T20:29:14.423Z,11.30
2023-04-18T20:31:42.323Z,11.68
2023-04-18T20:34:09.850Z,10.70
2023-04-18T20:36:41.298Z,11.05
2023-04-18T20:39:12.614Z,10.80
2023-04-18T20:41:48.384Z,10.23
2023-04-18T20:44:15.864Z,10.80
2023-04-18T20:46:42.806Z,10.88
2023-04-18T20:49:09.687Z,11.45
2023-04-18T20:51:37.042Z,10.65
2023-04-18T20:54:06.573Z,10.40
2023-04-18T20:56:33.767Z,10.68
2023-04-18T20:59:00.160Z,10.27
2023-04-18T21:01:26.608Z,10.50
2023-04-18T21:03:53.325Z,10.77
2023-04-18T21:06:22.121Z,10.05
2023-04-18T21:08:48.809Z,10.15
2023-04-18T21:11:15.274Z,11.30
2023-04-18T21:13:41.741Z,10.60
2023-04-18T21:16:10.144Z,10.13
2023-04-18T21:18:36.987Z,10.50
2023-04-18T21:21:03.474Z,10.93
2023-04-18T21:23:29.873Z,10.35
2023-04-18T21:25:56.335Z,10.32
2023-04-18T21:28:22.690Z,10.90
2023-04-18T21:30:49.014Z,10.65
2023-04-18T21:33:15.540Z,12.25
2023-04-18T21:35:41.931Z,10.48
2023-04-18T21:38:08.313Z,10.32
2023-04-18T21:40:34.688Z,11.10
2023-04-18T21:43:01.167Z,10.80
2023-04-18T21:45:27.619Z,10.85
2023-04-18T21:47:54.113Z,10.50
2023-04-18T21:50:20.690Z,11.60
2023-04-18T21:52:47.099Z,10.13
2023-04-18T21:55:13.500Z,10.52
2023-04-18T21:57:40.336Z,10.90
2023-04-18T22:00:10.277Z,10.70
2023-04-18T22:02:37.160Z,11.27
2023-04-18T22:05:03.722Z,11.02
2023-04-18T22:07:31.227Z,11.13
2023-04-18T22:09:59.651Z,11.77
2023-04-18T22:12:26.318Z,11.35
2023-04-18T22:14:52.910Z,11.13
2023-04-18T22:17:20.850Z,11.50
2023-04-18T22:19:48.971Z,11.05
2023-04-18T22:22:15.344Z,11.13
2023-04-18T22:24:41.716Z,11.65
2023-04-18T22:27:08.111Z,12.02
2023-04-18T22:29:34.625Z,11.75
2023-04-18T22:32:01.101Z,11.77
2023-04-18T22:34:27.501Z,11.63
2023-04-18T22:36:54.018Z,11.25
2023-04-18T22:39:20.436Z,10.95
2023-04-18T22:41:46.803Z,11.38
2023-04-18T22:44:13.461Z,11.65
2023-04-18T22:46:40.742Z,11.40
2023-04-18T22:49:07.355Z,11.80
2023-04-18T22:51:34.119Z,12.15
2023-04-18T22:54:00.546Z,12.15
2023-04-18T22:56:26.916Z,12.45
2023-04-18T22:58:53.337Z,12.57
2023-04-18T23:01:19.800Z,12.13
2023-04-18T23:03:46.430Z,11.90
2023-04-18T23:06:12.954Z,11.52
2023-04-18T23:08:39.352Z,11.77
2023-04-18T23:11:05.901Z,12.55
2023-04-18T23:13:32.247Z,11.63
2023-04-18T23:15:58.685Z,12.30
2023-04-18T23:18:25.048Z,12.15
2023-04-18T23:20:51.379Z,12.57
2023-04-18T23:23:17.845Z,11.63
2023-04-18T23:25:44.282Z,11.98
2023-04-18T23:28:10.713Z,12.25
2023-04-18T23:30:37.280Z,11.73
2023-04-18T23:33:03.798Z,11.63
2023-04-18T23:35:30.290Z,11.55
2023-04-18T23:37:57.142Z,11.70
2023-04-18T23:40:23.618Z,12.40
2023-04-18T23:42:50.137Z,12.20
2023-04-18T23:45:16.640Z,11.40
2023-04-18T23:47:43.013Z,13.25
2023-04-18T23:50:09.848Z,12.80
2023-04-18T23:52:38.076Z,11.68
2023-04-18T23:55:04.788Z,12.98
2023-04-18T23:57:31.221Z,12.35
2023-04-18T23:59:57.635Z,12.07
